Time;durP1;ratioP1;P1;durP2;ratioP2;P2;SDS_P1;SDS_P2;PMS_P1;PMS_P2;Temp;Humidity;BMP_temperature;BMP_pressure;BME280_temperature;BME280_humidity;BME280_pressure;Samples;Min_cycle;Max_cycle;Signal;HPM_P1;HPM_P2
2022/07/24 00:01:59;;;;;;;6.78;4.07;;;16.10;99.90;;;;;;5269016;28;20399;-72
2022/07/24 00:04:30;;;;;;;5.03;4.00;;;16.40;99.90;;;;;;5269046;28;20055;-69
2022/07/24 00:07:01;;;;;;;4.47;3.45;;;16.30;99.90;;;;;;5269034;28;20024;-71
2022/07/24 00:09:32;;;;;;;6.20;4.20;;;16.50;99.90;;;;;;5268962;28;20028;-72
2022/07/24 00:12:03;;;;;;;3.97;3.58;;;16.30;99.90;;;;;;5268501;28;20035;-71
2022/07/24 00:14:34;;;;;;;5.65;3.92;;;15.70;99.90;;;;;;5268773;28;20434;-69
2022/07/24 00:17:05;;;;;;;4.50;4.03;;;15.70;99.90;;;;;;5268770;28;20032;-71
2022/07/24 00:19:36;;;;;;;4.45;4.05;;;15.70;99.90;;;;;;5268598;28;20027;-71
2022/07/24 00:22:07;;;;;;;4.78;3.90;;;16.10;99.90;;;;;;5268541;28;20116;-70
2022/07/24 00:24:38;;;;;;;6.28;4.13;;;16.20;99.90;;;;;;5268647;28;20029;-71
2022/07/24 00:27:08;;;;;;;9.15;4.18;;;16.30;99.90;;;;;;5268423;28;20028;-69
2022/07/24 00:29:39;;;;;;;4.72;3.65;;;16.40;99.90;;;;;;5268456;28;20463;-69
2022/07/24 00:32:10;;;;;;;5.43;3.95;;;16.40;99.90;;;;;;5268004;28;20036;-72
2022/07/24 00:34:41;;;;;;;4.30;3.90;;;16.00;99.90;;;;;;5268271;28;20498;-72
2022/07/24 00:37:12;;;;;;;4.30;3.90;;;15.40;99.90;;;;;;5268371;28;20032;-68
2022/07/24 00:39:44;;;;;;;4.63;3.80;;;15.70;99.90;;;;;;5268440;28;20031;-72
2022/07/24 00:42:18;;;;;;;4.47;3.63;;;15.90;99.90;;;;;;5268305;28;20028;-68
2022/07/24 00:44:49;;;;;;;4.47;3.70;;;16.10;99.90;;;;;;5268116;28;20024;-69
2022/07/24 00:47:20;;;;;;;4.85;3.83;;;16.00;99.90;;;;;;5268084;28;20028;-72
2022/07/24 00:49:50;;;;;;;4.28;3.65;;;15.90;99.90;;;;;;5268176;28;20024;-70
2022/07/24 00:52:21;;;;;;;4.25;3.78;;;15.70;99.90;;;;;;5267710;28;20492;-72
2022/07/24 00:54:55;;;;;;;4.30;3.72;;;15.80;99.90;;;;;;5267998;28;20059;-71
2022/07/24 00:57:26;;;;;;;6.53;3.75;;;15.70;99.90;;;;;;5267978;28;20028;-72
2022/07/24 00:59:57;;;;;;;4.72;3.60;;;15.80;99.90;;;;;;5268054;28;20081;-71
2022/07/24 01:02:27;;;;;;;4.30;3.65;;;15.80;99.90;;;;;;5267905;28;20024;-71
2022/07/24 01:04:58;;;;;;;4.93;3.75;;;15.50;99.90;;;;;;5267997;28;20056;-71
2022/07/24 01:07:29;;;;;;;4.30;3.45;;;16.00;99.90;;;;;;5267831;28;20024;-72
2022/07/24 01:10:00;;;;;;;4.40;3.47;;;16.10;99.90;;;;;;5267908;28;20435;-72
2022/07/24 01:12:33;;;;;;;4.40;3.80;;;15.90;99.90;;;;;;5267780;28;20036;-70
2022/07/24 01:15:06;;;;;;;5.25;3.72;;;15.90;99.90;;;;;;5267909;28;20100;-72
2022/07/24 01:17:41;;;;;;;5.63;3.45;;;15.80;99.90;;;;;;5267784;28;20020;-71
2022/07/24 01:20:12;;;;;;;4.30;3.72;;;15.50;99.90;;;;;;5267872;28;20376;-69
2022/07/24 01:22:42;;;;;;;4.63;3.58;;;16.00;99.90;;;;;;5267796;28;20020;-72
2022/07/24 01:25:13;;;;;;;4.25;3.65;;;16.00;99.90;;;;;;5249693;28;20031;-71
2022/07/24 01:27:44;;;;;;;5.20;3.60;;;15.50;99.90;;;;;;5267756;28;20016;-72
2022/07/24 01:30:15;;;;;;;4.90;4.00;;;15.70;99.90;;;;;;5267773;28;20027;-72
2022/07/24 01:32:46;;;;;;;4.32;3.47;;;15.80;99.90;;;;;;5267673;28;20066;-69
2022/07/24 01:35:17;;;;;;;4.80;3.53;;;15.90;99.90;;;;;;5267698;28;20032;-71
2022/07/24 01:37:48;;;;;;;5.25;4.00;;;15.70;99.90;;;;;;5267657;28;20032;-69
2022/07/24 01:40:20;;;;;;;4.30;3.90;;;15.60;99.90;;;;;;5267553;28;20024;-71
2022/07/24 01:42:51;;;;;;;4.05;3.50;;;15.40;99.90;;;;;;5267644;28;20024;-71
2022/07/24 01:45:22;;;;;;;4.53;3.92;;;15.20;99.90;;;;;;5269264;28;20034;-71
2022/07/24 01:47:53;;;;;;;4.75;3.80;;;15.50;99.90;;;;;;5271708;28;20023;-70
2022/07/24 01:50:24;;;;;;;4.30;3.90;;;15.80;99.90;;;;;;5271362;28;20533;-69
2022/07/24 01:52:55;;;;;;;5.43;3.83;;;15.90;99.90;;;;;;5271162;28;20485;-71
2022/07/24 01:55:26;;;;;;;4.90;3.47;;;15.90;99.90;;;;;;5271364;28;20032;-70
2022/07/24 01:57:57;;;;;;;7.68;3.97;;;15.80;99.90;;;;;;5271319;28;20028;-72
2022/07/24 02:00:28;;;;;;;4.15;3.75;;;15.70;99.90;;;;;;5271107;28;20028;-72
2022/07/24 02:02:58;;;;;;;4.38;3.97;;;15.40;99.90;;;;;;5271166;28;20047;-71
2022/07/24 02:05:29;;;;;;;5.68;3.75;;;15.40;99.90;;;;;;5271135;28;20019;-70
2022/07/24 02:08:00;;;;;;;6.13;4.13;;;15.50;99.90;;;;;;5271022;28;20032;-68
2022/07/24 02:10:31;;;;;;;4.40;4.00;;;15.20;99.90;;;;;;5270957;28;20084;-72
2022/07/24 02:13:02;;;;;;;4.50;4.10;;;15.80;99.90;;;;;;5270867;28;20039;-72
2022/07/24 02:15:33;;;;;;;4.82;3.72;;;15.60;99.90;;;;;;5271002;28;20024;-71
2022/07/24 02:18:04;;;;;;;4.90;4.22;;;15.40;99.90;;;;;;5270921;28;20440;-72
2022/07/24 02:20:35;;;;;;;4.97;4.10;;;15.00;99.90;;;;;;5270811;28;20039;-72
2022/07/24 02:23:06;;;;;;;4.65;4.18;;;15.50;99.90;;;;;;5270725;28;20070;-70
2022/07/24 02:25:37;;;;;;;4.15;3.75;;;15.40;99.90;;;;;;5270705;28;20472;-71
2022/07/24 02:28:08;;;;;;;6.90;4.05;;;15.60;99.90;;;;;;5270829;28;20020;-71
2022/07/24 02:30:39;;;;;;;5.18;3.70;;;15.20;99.90;;;;;;5270696;28;20039;-69
2022/07/24 02:33:10;;;;;;;7.75;4.25;;;15.60;99.90;;;;;;5270533;28;20094;-70
2022/07/24 02:35:41;;;;;;;7.00;4.40;;;15.30;99.90;;;;;;5270603;28;20016;-69
2022/07/24 02:38:12;;;;;;;5.00;4.55;;;15.30;99.90;;;;;;5270642;28;20181;-70
2022/07/24 02:40:43;;;;;;;6.40;4.15;;;15.20;99.90;;;;;;5270321;28;20016;-69
2022/07/24 02:43:13;;;;;;;4.80;4.03;;;15.60;99.90;;;;;;5270448;28;20020;-71
2022/07/24 02:45:48;;;;;;;5.93;4.32;;;15.60;99.90;;;;;;5270318;28;20027;-68
2022/07/24 02:48:23;;;;;;;5.50;4.40;;;15.30;99.90;;;;;;5270269;28;20024;-68
2022/07/24 02:50:59;;;;;;;6.68;4.60;;;15.10;99.90;;;;;;5269749;28;20099;-69
2022/07/24 02:53:34;;;;;;;6.25;3.95;;;15.20;99.90;;;;;;5270136;28;20044;-68
2022/07/24 02:56:09;;;;;;;8.48;4.13;;;15.30;99.90;;;;;;5270026;28;20146;-68
2022/07/24 02:58:44;;;;;;;4.55;4.03;;;15.10;99.90;;;;;;5270016;28;20020;-68
2022/07/24 03:01:15;;;;;;;4.95;4.45;;;15.10;99.90;;;;;;5270469;28;20028;-69
2022/07/24 03:03:46;;;;;;;5.47;4.90;;;15.20;99.90;;;;;;5270264;28;20379;-71
2022/07/24 03:06:17;;;;;;;5.00;4.10;;;15.40;99.90;;;;;;5270179;28;20024;-71
2022/07/24 03:08:47;;;;;;;6.05;4.38;;;15.50;99.90;;;;;;5270128;28;20035;-71
2022/07/24 03:11:18;;;;;;;7.78;4.15;;;15.50;99.90;;;;;;5269814;28;20024;-68
2022/07/24 03:13:49;;;;;;;7.50;4.07;;;15.70;99.90;;;;;;5269795;28;20506;-71
2022/07/24 03:16:20;;;;;;;5.03;3.85;;;15.70;99.90;;;;;;5269951;28;20035;-72
2022/07/24 03:18:51;;;;;;;6.30;4.22;;;15.50;99.90;;;;;;5269859;28;20496;-72
2022/07/24 03:21:22;;;;;;;9.98;5.00;;;15.30;99.90;;;;;;5269795;28;20077;-71
2022/07/24 03:23:53;;;;;;;5.82;4.78;;;15.20;99.90;;;;;;5269608;28;20028;-72
2022/07/24 03:26:23;;;;;;;5.22;4.40;;;14.90;99.90;;;;;;5269513;28;20032;-69
2022/07/24 03:28:54;;;;;;;4.95;4.40;;;15.00;99.90;;;;;;5269523;28;20096;-70
2022/07/24 03:31:25;;;;;;;7.30;4.88;;;15.30;99.90;;;;;;5269343;28;20028;-70
2022/07/24 03:33:56;;;;;;;6.82;4.70;;;15.70;99.90;;;;;;5269468;28;20376;-71
2022/07/24 03:36:27;;;;;;;5.68;4.47;;;15.60;99.90;;;;;;5269459;28;20024;-71
2022/07/24 03:38:58;;;;;;;6.75;4.35;;;15.50;99.90;;;;;;5269354;28;20058;-71
2022/07/24 03:41:29;;;;;;;6.90;5.32;;;15.10;99.90;;;;;;5269357;28;20066;-68
2022/07/24 03:44:00;;;;;;;7.43;5.03;;;14.90;99.90;;;;;;5269107;28;20024;-72
2022/07/24 03:46:30;;;;;;;8.32;4.97;;;15.10;99.90;;;;;;5269311;28;20376;-72
2022/07/24 03:49:02;;;;;;;5.10;4.22;;;15.00;99.90;;;;;;5269182;28;20491;-72
2022/07/24 03:51:34;;;;;;;5.38;4.38;;;15.20;99.90;;;;;;5268807;28;20050;-71
2022/07/24 03:54:05;;;;;;;5.18;4.07;;;15.20;99.90;;;;;;5269015;28;20044;-71
2022/07/24 03:56:36;;;;;;;5.82;4.60;;;15.50;99.90;;;;;;5268893;28;20020;-71
2022/07/24 03:59:07;;;;;;;6.93;4.47;;;15.80;99.90;;;;;;5269060;28;20108;-69
2022/07/24 04:01:38;;;;;;;6.40;4.18;;;16.00;99.90;;;;;;5268864;28;20035;-70
2022/07/24 04:04:09;;;;;;;5.63;4.35;;;15.80;99.90;;;;;;5268949;28;20035;-72
2022/07/24 04:06:40;;;;;;;5.90;4.90;;;15.80;99.90;;;;;;5268766;28;20035;-70
2022/07/24 04:09:11;;;;;;;4.80;4.35;;;15.80;99.90;;;;;;5268111;28;20159;-71
2022/07/24 04:11:44;;;;;;;6.10;4.93;;;16.00;99.90;;;;;;5268423;28;20119;-71
2022/07/24 04:14:15;;;;;;;7.75;5.07;;;15.70;99.90;;;;;;5268574;28;20434;-69
2022/07/24 04:16:46;;;;;;;5.53;4.72;;;15.90;99.90;;;;;;5268660;28;20032;-70
2022/07/24 04:19:17;;;;;;;6.38;4.35;;;16.10;99.90;;;;;;5268614;28;20020;-71
2022/07/24 04:21:48;;;;;;;6.05;4.10;;;16.50;99.90;;;;;;5268472;28;20028;-71
2022/07/24 04:24:19;;;;;;;4.97;4.20;;;16.90;99.90;;;;;;5268343;28;20035;-69
2022/07/24 04:26:50;;;;;;;7.65;4.30;;;16.80;99.90;;;;;;5268543;28;20031;-70
2022/07/24 04:29:21;;;;;;;7.03;4.53;;;16.80;99.90;;;;;;5268336;28;20032;-69
2022/07/24 04:31:52;;;;;;;6.95;5.20;;;16.90;99.90;;;;;;5268320;28;20040;-72
2022/07/24 04:34:22;;;;;;;5.47;4.30;;;17.00;99.90;;;;;;5268559;28;20055;-71
2022/07/24 04:36:53;;;;;;;6.88;4.65;;;17.00;99.90;;;;;;5268373;28;20016;-72
2022/07/24 04:39:24;;;;;;;6.75;4.50;;;17.00;99.90;;;;;;5268241;28;20038;-70
2022/07/24 04:41:55;;;;;;;8.57;5.15;;;16.90;99.90;;;;;;5268223;28;20059;-70
2022/07/24 04:44:26;;;;;;;6.10;4.70;;;17.20;99.90;;;;;;5268307;28;20028;-72
2022/07/24 04:46:57;;;;;;;6.40;5.05;;;16.90;99.90;;;;;;5268110;28;20023;-71
2022/07/24 04:49:27;;;;;;;6.28;4.70;;;17.10;99.90;;;;;;5268159;28;20022;-69
2022/07/24 04:51:58;;;;;;;6.18;4.70;;;17.00;99.90;;;;;;5267849;28;20387;-68
2022/07/24 04:54:29;;;;;;;6.28;5.45;;;17.50;99.90;;;;;;5268080;28;20024;-70
2022/07/24 04:57:00;;;;;;;5.13;4.63;;;17.60;99.90;;;;;;5268457;28;20399;-71
2022/07/24 04:59:31;;;;;;;7.20;4.88;;;17.90;99.90;;;;;;5268035;28;20024;-70
2022/07/24 05:02:02;;;;;;;6.07;4.72;;;18.10;99.90;;;;;;5268179;28;20379;-71
2022/07/24 05:04:34;;;;;;;6.63;5.07;;;18.20;99.90;;;;;;5267937;28;20024;-72
2022/07/24 05:07:05;;;;;;;6.35;5.32;;;18.40;99.90;;;;;;5268246;28;20072;-71
2022/07/24 05:09:36;;;;;;;5.97;5.07;;;18.80;99.90;;;;;;5268168;28;20077;-70
2022/07/24 05:12:07;;;;;;;6.70;4.70;;;19.10;99.90;;;;;;5268184;28;20111;-69
2022/07/24 05:14:38;;;;;;;5.55;4.90;;;19.30;99.90;;;;;;5268085;28;20043;-72
2022/07/24 05:17:09;;;;;;;5.82;4.63;;;19.60;99.90;;;;;;5268127;28;20016;-72
2022/07/24 05:19:40;;;;;;;8.20;4.68;;;19.60;99.90;;;;;;5270359;28;20061;-68
2022/07/24 05:22:11;;;;;;;5.85;4.65;;;20.20;99.90;;;;;;5272070;28;20035;-72
2022/07/24 05:24:42;;;;;;;6.18;4.95;;;20.40;99.90;;;;;;5271974;28;20028;-71
2022/07/24 05:27:13;;;;;;;5.72;4.28;;;20.30;99.90;;;;;;5272057;28;20035;-68
2022/07/24 05:29:44;;;;;;;6.82;4.10;;;20.70;99.90;;;;;;5271773;28;20028;-71
2022/07/24 05:32:15;;;;;;;5.90;4.93;;;20.90;99.90;;;;;;5273256;28;20356;-72
2022/07/24 05:34:46;;;;;;;7.28;4.93;;;21.10;99.90;;;;;;5271882;28;20024;-72
2022/07/24 05:37:16;;;;;;;6.72;4.43;;;21.20;99.90;;;;;;5271903;28;20081;-71
2022/07/24 05:39:47;;;;;;;5.18;4.55;;;21.60;99.90;;;;;;5271651;28;20032;-73
2022/07/24 05:42:18;;;;;;;5.55;3.97;;;22.00;99.90;;;;;;5271708;28;20051;-72
2022/07/24 05:44:49;;;;;;;4.95;4.15;;;21.90;99.90;;;;;;5271567;28;20130;-72
2022/07/24 05:47:20;;;;;;;8.85;3.60;;;22.00;99.90;;;;;;5271619;28;20157;-72
2022/07/24 05:49:51;;;;;;;4.55;3.67;;;22.50;99.90;;;;;;5271558;28;20024;-73
2022/07/24 05:52:21;;;;;;;6.25;4.40;;;22.80;99.90;;;;;;5271327;28;20040;-70
2022/07/24 05:54:52;;;;;;;8.07;4.32;;;23.30;99.90;;;;;;5271409;28;20032;-70
2022/07/24 05:57:23;;;;;;;5.60;4.20;;;23.50;99.90;;;;;;5271269;28;20047;-72
2022/07/24 05:59:54;;;;;;;4.80;4.30;;;23.80;99.90;;;;;;5271471;28;20027;-73
2022/07/24 06:02:25;;;;;;;6.55;3.65;;;24.00;99.90;;;;;;5271421;28;20479;-71
2022/07/24 06:04:56;;;;;;;4.82;3.78;;;24.30;99.90;;;;;;5271294;28;20036;-72
2022/07/24 06:07:26;;;;;;;4.35;2.97;;;24.50;99.90;;;;;;5271333;28;20024;-73
2022/07/24 06:09:57;;;;;;;4.43;2.90;;;24.70;99.90;;;;;;5271195;28;20039;-72
2022/07/24 06:12:28;;;;;;;6.88;2.72;;;25.00;99.90;;;;;;5270967;28;20028;-73
2022/07/24 06:14:59;;;;;;;10.73;3.10;;;25.20;99.90;;;;;;5271194;28;20024;-72
2022/07/24 06:17:30;;;;;;;4.28;3.25;;;25.30;99.90;;;;;;5271090;28;20016;-73
2022/07/24 06:20:01;;;;;;;6.10;2.80;;;24.80;99.90;;;;;;5270840;28;20036;-72
2022/07/24 06:22:31;;;;;;;26.42;11.88;;;25.20;99.90;;;;;;5270647;28;20361;-73
2022/07/24 06:25:03;;;;;;;26.13;9.98;;;25.40;99.90;;;;;;5270921;28;20028;-73
2022/07/24 06:27:33;;;;;;;18.98;7.20;;;25.30;99.90;;;;;;5270825;28;20024;-72
2022/07/24 06:30:05;;;;;;;11.98;5.22;;;25.70;99.90;;;;;;5270514;28;20013;-70
2022/07/24 06:32:36;;;;;;;6.07;3.67;;;25.60;99.90;;;;;;5270327;28;20066;-73
2022/07/24 06:35:07;;;;;;;5.80;3.25;;;26.00;99.90;;;;;;5270651;28;20494;-71
2022/07/24 06:37:38;;;;;;;8.32;3.08;;;25.90;99.90;;;;;;5270734;28;20105;-73
2022/07/24 06:40:10;;;;;;;6.22;2.85;;;26.00;99.90;;;;;;5270433;28;20024;-72
2022/07/24 06:42:40;;;;;;;3.75;2.67;;;26.10;99.90;;;;;;5252312;28;20502;-73
2022/07/24 06:45:12;;;;;;;8.55;3.15;;;26.10;99.90;;;;;;5270479;28;20020;-73
2022/07/24 06:47:43;;;;;;;5.90;2.67;;;26.10;99.90;;;;;;5270411;28;20024;-71
2022/07/24 06:50:14;;;;;;;5.70;3.20;;;26.40;99.90;;;;;;5270505;28;20065;-71
2022/07/24 06:52:45;;;;;;;8.82;3.60;;;26.60;99.90;;;;;;5269899;28;20515;-73
2022/07/24 06:55:16;;;;;;;22.00;4.22;;;26.50;99.90;;;;;;5270368;28;20028;-72
2022/07/24 06:57:47;;;;;;;15.13;3.80;;;26.60;99.90;;;;;;5270102;28;20024;-73
2022/07/24 07:00:18;;;;;;;7.38;3.50;;;27.00;99.90;;;;;;5270270;28;20034;-72
2022/07/24 07:02:50;;;;;;;6.97;3.85;;;26.60;99.90;;;;;;5280365;28;20023;-72
2022/07/24 07:05:21;;;;;;;8.13;3.60;;;26.70;99.90;;;;;;5291073;28;20024;-72
2022/07/24 07:07:51;;;;;;;19.65;4.22;;;27.10;99.90;;;;;;5291314;28;20024;-72
2022/07/24 07:10:23;;;;;;;6.20;3.53;;;26.90;99.90;;;;;;5291551;28;20087;-72
2022/07/24 07:12:54;;;;;;;4.10;2.90;;;27.30;99.90;;;;;;5290206;28;20059;-69
2022/07/24 07:15:24;;;;;;;5.68;2.90;;;27.40;99.90;;;;;;5290239;28;20051;-69
2022/07/24 07:17:55;;;;;;;7.75;2.60;;;27.40;99.90;;;;;;5271830;28;20027;-69
2022/07/24 07:20:26;;;;;;;6.43;3.20;;;27.50;99.90;;;;;;5272688;28;20020;-73
2022/07/24 07:22:57;;;;;;;5.40;3.08;;;27.70;99.90;;;;;;5273241;28;20031;-73
2022/07/24 07:25:29;;;;;;;10.23;3.05;;;27.80;99.90;;;;;;5291335;28;20090;-72
2022/07/24 07:28:00;;;;;;;5.70;2.80;;;27.70;99.90;;;;;;5291432;28;20368;-72
2022/07/24 07:30:30;;;;;;;7.57;2.53;;;27.60;99.90;;;;;;5291418;28;20026;-72
2022/07/24 07:33:01;;;;;;;4.93;2.50;;;27.90;99.90;;;;;;5291255;28;20100;-71
2022/07/24 07:35:32;;;;;;;8.10;2.40;;;28.00;99.90;;;;;;5291316;28;20102;-71
2022/07/24 07:38:03;;;;;;;12.45;2.67;;;28.30;99.90;;;;;;5291353;28;20035;-71
2022/07/24 07:40:34;;;;;;;11.88;1.88;;;27.90;99.90;;;;;;5290937;28;20485;-72
2022/07/24 07:43:05;;;;;;;5.40;1.85;;;28.10;99.90;;;;;;5289812;28;20031;-69
2022/07/24 07:45:35;;;;;;;2.33;1.92;;;28.10;99.90;;;;;;5287136;28;20035;-69
2022/07/24 07:48:06;;;;;;;9.13;2.05;;;28.40;99.90;;;;;;5258879;28;20039;-71
2022/07/24 07:50:37;;;;;;;5.82;2.50;;;28.50;99.90;;;;;;5272498;28;20020;-69
2022/07/24 07:53:08;;;;;;;215.27;12.43;;;28.40;99.90;;;;;;5290829;28;20109;-70
2022/07/24 07:55:40;;;;;;;12.88;2.00;;;28.80;99.90;;;;;;5289277;28;20126;-69
2022/07/24 07:58:10;;;;;;;7.32;2.05;;;28.70;99.90;;;;;;5269798;28;20020;-72
2022/07/24 08:00:41;;;;;;;8.00;2.17;;;28.60;99.90;;;;;;5269717;28;20020;-71
2022/07/24 08:03:12;;;;;;;5.63;2.25;;;28.60;99.90;;;;;;5269565;28;20036;-71
2022/07/24 08:05:43;;;;;;;7.28;2.33;;;28.60;99.90;;;;;;5269587;28;20031;-70
2022/07/24 08:08:14;;;;;;;4.15;2.47;;;28.10;99.90;;;;;;5269467;28;20527;-69
2022/07/24 08:10:45;;;;;;;3.08;1.85;;;28.20;99.90;;;;;;5269367;28;20020;-69
2022/07/24 08:13:17;;;;;;;7.50;2.63;;;28.80;99.90;;;;;;5269395;28;20047;-69
2022/07/24 08:15:48;;;;;;;5.88;2.70;;;28.30;99.90;;;;;;5269385;28;20472;-69
2022/07/24 08:18:19;;;;;;;6.97;2.30;;;28.30;99.90;;;;;;5269305;28;20028;-69
2022/07/24 08:20:50;;;;;;;9.45;2.70;;;28.00;99.90;;;;;;5269171;28;20383;-71
2022/07/24 08:23:21;;;;;;;6.97;2.92;;;28.80;99.90;;;;;;5269323;28;20028;-71
2022/07/24 08:25:52;;;;;;;5.88;3.33;;;28.30;99.90;;;;;;5269163;28;20062;-69
2022/07/24 08:28:23;;;;;;;7.40;2.60;;;29.10;99.90;;;;;;5269415;28;20032;-72
2022/07/24 08:30:54;;;;;;;13.55;3.30;;;29.30;99.90;;;;;;5269369;28;20020;-69
2022/07/24 08:33:25;;;;;;;4.90;2.40;;;29.50;99.90;;;;;;5269266;28;20096;-68
2022/07/24 08:35:56;;;;;;;8.35;2.47;;;29.40;99.90;;;;;;5268925;28;20037;-69
2022/07/24 08:38:27;;;;;;;5.47;2.95;;;29.80;99.90;;;;;;5269086;28;20024;-70
2022/07/24 08:40:58;;;;;;;9.32;2.50;;;29.30;99.90;;;;;;5269081;28;20110;-68
2022/07/24 08:43:29;;;;;;;6.88;2.30;;;29.70;99.90;;;;;;5269015;28;20460;-71
2022/07/24 08:46:02;;;;;;;5.82;2.78;;;30.00;99.90;;;;;;5268898;28;20035;-73
2022/07/24 08:48:33;;;;;;;6.25;2.75;;;29.80;99.90;;;;;;5269241;28;20084;-70
2022/07/24 08:51:05;;;;;;;2.80;2.20;;;29.90;99.90;;;;;;5268612;28;20031;-73
2022/07/24 08:53:35;;;;;;;2.30;2.10;;;29.70;99.90;;;;;;5268703;28;20040;-72
2022/07/24 08:56:07;;;;;;;4.78;2.67;;;30.00;99.90;;;;;;5268742;28;20028;-74
2022/07/24 08:58:39;;;;;;;3.72;2.53;;;30.20;99.90;;;;;;5268861;28;20066;-69
2022/07/24 09:01:10;;;;;;;3.10;2.28;;;29.40;99.90;;;;;;5275533;28;20027;-69
2022/07/24 09:03:43;;;;;;;5.70;2.00;;;30.20;99.90;;;;;;5289303;28;20475;-69
2022/07/24 09:06:15;;;;;;;3.13;2.15;;;30.10;99.90;;;;;;5289734;28;20055;-69
2022/07/24 09:09:03;;;;;;;6.63;2.40;;;30.30;99.90;;;;;;5290022;28;20847;-70
2022/07/24 09:11:38;;;;;;;5.03;1.90;;;30.70;99.90;;;;;;5289700;28;20030;-68
2022/07/24 09:17:08;;;;;;;4.68;2.10;;;30.60;99.90;;;;;;5290021;28;20081;-70
2022/07/24 09:19:51;;;;;;;;;;;30.10;99.90;;;;;;5290088;28;20057;-74
2022/07/24 09:22:35;;;;;;;2.80;1.98;;;30.60;99.90;;;;;;5289644;28;19908;-75
2022/07/24 09:25:09;;;;;;;5.65;1.77;;;29.80;99.90;;;;;;5289719;28;20024;-68
2022/07/24 09:27:52;;;;;;;5.80;2.22;;;30.70;99.90;;;;;;5289810;28;20024;-69
2022/07/24 09:30:42;;;;;;;6.32;2.08;;;30.40;99.90;;;;;;5289619;28;20474;-70
2022/07/24 09:33:13;;;;;;;5.22;1.80;;;30.60;99.90;;;;;;5289668;28;20031;-69
2022/07/24 09:35:47;;;;;;;3.72;1.70;;;30.20;99.90;;;;;;5284504;28;20552;-69
2022/07/24 09:38:21;;;;;;;9.88;2.10;;;30.40;99.90;;;;;;5282596;28;20118;-69
2022/07/24 09:40:54;;;;;;;4.72;2.10;;;30.80;99.90;;;;;;5289635;28;20512;-66
2022/07/24 09:43:28;;;;;;;6.30;1.95;;;30.90;99.90;;;;;;5289343;28;20024;-68
2022/07/24 09:46:04;;;;;;;7.38;1.83;;;30.80;99.90;;;;;;5289743;28;20030;-69
2022/07/24 09:48:41;;;;;;;6.05;2.00;;;31.20;99.90;;;;;;5289428;28;20023;-69
2022/07/24 09:51:16;;;;;;;4.95;1.90;;;31.40;99.90;;;;;;5289051;28;20078;-68
2022/07/24 09:53:57;;;;;;;7.38;2.22;;;31.20;99.90;;;;;;5289353;28;20391;-68
2022/07/24 09:56:28;;;;;;;3.90;1.98;;;30.90;99.90;;;;;;5289463;28;20024;-70
2022/07/24 09:59:00;;;;;;;6.38;1.98;;;30.70;99.90;;;;;;5289350;28;20023;-68
2022/07/24 10:01:32;;;;;;;4.75;1.98;;;30.70;99.90;;;;;;5289433;28;20066;-68
2022/07/24 10:04:06;;;;;;;3.95;1.92;;;30.80;99.90;;;;;;5289244;28;20047;-68
2022/07/24 10:06:40;;;;;;;7.15;1.85;;;30.30;99.90;;;;;;5291181;28;20039;-72
2022/07/24 10:09:12;;;;;;;7.70;2.10;;;31.00;99.90;;;;;;5293094;28;20054;-69
2022/07/24 10:11:46;;;;;;;121.30;9.80;;;30.80;99.90;;;;;;5292809;28;20084;-72
2022/07/24 10:14:17;;;;;;;24.83;3.72;;;30.90;99.90;;;;;;5292889;28;20034;-66
2022/07/24 10:17:00;;;;;;;10.35;1.98;;;31.00;99.90;;;;;;5292896;28;20367;-68
2022/07/24 10:19:51;;;;;;;57.70;5.20;;;30.80;99.90;;;;;;5292848;28;20035;-67
2022/07/24 10:22:23;;;;;;;110.20;9.35;;;31.20;99.90;;;;;;5288937;28;20123;-66
2022/07/24 10:24:55;;;;;;;4.05;1.58;;;31.30;99.90;;;;;;5280412;28;20134;-66
2022/07/24 10:27:34;;;;;;;19.95;2.50;;;30.80;99.90;;;;;;5271693;28;20082;-68
2022/07/24 10:30:07;;;;;;;87.45;8.05;;;30.80;99.90;;;;;;5271251;28;20020;-69
2022/07/24 10:32:39;;;;;;;13.85;2.17;;;31.20;99.90;;;;;;5271186;28;20032;-69
2022/07/24 10:35:28;;;;;;;25.92;3.05;;;30.60;99.90;;;;;;5271496;28;20043;-67
2022/07/24 10:38:19;;;;;;;8.93;2.00;;;31.10;99.90;;;;;;5271143;28;20058;-68
2022/07/24 10:40:54;;;;;;;4.82;1.65;;;31.10;99.90;;;;;;5270743;28;20476;-69
2022/07/24 10:43:25;;;;;;;5.57;1.90;;;31.30;99.90;;;;;;5271002;28;20028;-68
2022/07/24 10:45:56;;;;;;;22.25;2.75;;;30.20;99.90;;;;;;5271529;28;20073;-73
2022/07/24 10:48:35;;;;;;;11.82;2.13;;;31.30;99.90;;;;;;5271269;28;20024;-69
2022/07/24 10:51:07;;;;;;;;;;;31.60;99.90;;;;;;5271344;28;20372;-73
2022/07/24 10:53:38;;;;;;;4.47;1.73;;;31.30;99.90;;;;;;5271167;28;19916;-69
2022/07/24 10:56:24;;;;;;;3.70;2.05;;;31.30;99.90;;;;;;5271107;28;20352;-71
2022/07/24 10:59:06;;;;;;;8.00;1.80;;;31.90;99.90;;;;;;5271125;28;20028;-68
2022/07/24 11:01:44;;;;;;;5.97;1.98;;;30.50;99.90;;;;;;5270933;28;20031;-68
2022/07/24 11:04:18;;;;;;;4.45;2.08;;;31.10;99.90;;;;;;5270857;28;20035;-71
2022/07/24 11:06:53;;;;;;;9.27;2.03;;;31.80;99.90;;;;;;5270787;28;20050;-73
2022/07/24 11:09:26;;;;;;;6.20;2.22;;;31.50;99.90;;;;;;5270753;28;20359;-71
2022/07/24 11:12:00;;;;;;;5.43;1.73;;;31.80;99.90;;;;;;5270598;28;20051;-66
2022/07/24 11:14:37;;;;;;;3.15;1.80;;;31.60;99.90;;;;;;5270884;28;20039;-66
2022/07/24 11:17:36;;;;;;;3.60;2.00;;;31.80;99.90;;;;;;5270521;28;20048;-71
2022/07/24 11:20:13;;;;;;;7.70;2.00;;;31.50;99.90;;;;;;5270575;28;20028;-66
2022/07/24 11:22:47;;;;;;;4.70;1.70;;;31.70;99.90;;;;;;5270434;28;20074;-71
2022/07/24 11:25:26;;;;;;;3.80;2.03;;;31.50;99.90;;;;;;5270590;28;20024;-70
2022/07/24 11:28:11;;;;;;;2.42;1.83;;;31.90;99.90;;;;;;5270540;28;20478;-67
2022/07/24 11:30:44;;;;;;;3.95;1.73;;;31.80;99.90;;;;;;5270302;28;20036;-73
2022/07/24 11:33:21;;;;;;;9.82;1.90;;;30.60;99.90;;;;;;5270151;28;20043;-69
2022/07/24 11:35:52;;;;;;;4.72;1.65;;;30.70;99.90;;;;;;5270153;28;20031;-73
2022/07/24 11:38:29;;;;;;;4.57;1.85;;;31.70;99.90;;;;;;5164677;28;20041;-69
2022/07/24 11:41:07;;;;;;;5.60;2.08;;;31.40;99.90;;;;;;5224968;28;20092;-71
2022/07/24 11:43:50;;;;;;;7.32;2.13;;;31.60;99.90;;;;;;5226308;28;20035;-70
2022/07/24 11:46:39;;;;;;;8.38;2.08;;;32.00;99.90;;;;;;5217103;28;20021;-68
2022/07/24 11:49:10;;;;;;;5.27;1.90;;;31.40;99.90;;;;;;5220277;28;20032;-66
2022/07/24 11:51:43;;;;;;;5.22;2.00;;;31.40;99.90;;;;;;5227984;28;20128;-67
2022/07/24 11:54:19;;;;;;;5.75;1.73;;;31.60;99.90;;;;;;5228129;28;20040;-67
2022/07/24 11:56:52;;;;;;;3.65;2.00;;;31.90;99.90;;;;;;5228429;28;20029;-67
2022/07/24 11:59:24;;;;;;;4.25;2.30;;;32.30;99.90;;;;;;5228226;28;20068;-69
2022/07/24 12:02:06;;;;;;;8.90;2.30;;;31.90;99.90;;;;;;5227340;28;20056;-66
2022/07/24 12:04:39;;;;;;;2.83;1.83;;;32.30;99.90;;;;;;5228064;28;20037;-72
2022/07/24 12:07:13;;;;;;;5.72;1.90;;;32.50;99.90;;;;;;5228066;28;20021;-67
2022/07/24 12:09:59;;;;;;;3.47;1.85;;;31.90;99.90;;;;;;5227223;28;20033;-73
2022/07/24 12:12:37;;;;;;;3.95;2.10;;;31.40;99.90;;;;;;5227645;28;20033;-72
2022/07/24 12:15:11;;;;;;;8.57;2.20;;;31.70;99.90;;;;;;5227393;28;20071;-67
2022/07/24 12:18:05;;;;;;;5.55;2.20;;;31.60;99.90;;;;;;5224067;28;20378;-67
2022/07/24 12:20:39;;;;;;;3.85;2.30;;;31.90;99.90;;;;;;5215925;28;20484;-72
2022/07/24 12:23:12;;;;;;;7.07;2.22;;;32.50;99.90;;;;;;5218694;28;20037;-73
2022/07/24 12:25:44;;;;;;;9.13;2.80;;;32.50;99.90;;;;;;5215638;28;20025;-67
2022/07/24 12:28:18;;;;;;;9.68;2.05;;;32.40;99.90;;;;;;5215800;28;20025;-68
2022/07/24 12:30:54;;;;;;;5.75;2.10;;;32.00;99.90;;;;;;5216454;28;20021;-67
2022/07/24 12:33:29;;;;;;;4.32;2.13;;;32.10;99.90;;;;;;5216342;28;20033;-71
2022/07/24 12:36:08;;;;;;;3.45;1.90;;;32.30;99.90;;;;;;5213909;28;20021;-73
2022/07/24 12:38:59;;;;;;;8.10;2.05;;;32.00;99.90;;;;;;5212392;28;20029;-71
2022/07/24 12:41:31;;;;;;;3.92;2.08;;;32.10;99.90;;;;;;5227182;28;20101;-72
2022/07/24 12:44:06;;;;;;;5.10;2.40;;;32.00;99.90;;;;;;5227198;28;20060;-70
2022/07/24 12:46:42;;;;;;;8.00;2.15;;;32.10;99.90;;;;;;5227344;28;20025;-73
2022/07/24 12:49:17;;;;;;;3.65;2.55;;;31.50;99.90;;;;;;5227326;28;20025;-70
2022/07/24 12:51:51;;;;;;;4.60;2.00;;;31.70;99.90;;;;;;5227177;28;20044;-68
2022/07/24 12:54:46;;;;;;;3.85;1.90;;;31.30;99.90;;;;;;5222567;28;20041;-73
2022/07/24 12:57:21;;;;;;;2.75;1.90;;;31.60;99.90;;;;;;5133783;28;20055;-73
2022/07/24 13:00:02;;;;;;;4.60;1.98;;;31.80;99.90;;;;;;5127643;28;20036;-72
2022/07/24 13:02:33;;;;;;;4.97;2.25;;;31.90;99.90;;;;;;5137078;28;20067;-71
2022/07/24 13:05:04;;;;;;;3.60;1.70;;;31.80;99.90;;;;;;5135265;28;20069;-70
2022/07/24 13:07:35;;;;;;;5.20;1.70;;;31.50;99.90;;;;;;5123939;29;20423;-70
2022/07/24 13:10:06;;;;;;;7.80;1.80;;;31.70;99.90;;;;;;5131925;28;20038;-71
2022/07/24 13:12:37;;;;;;;13.48;2.10;;;31.20;99.90;;;;;;5123490;28;20458;-71
2022/07/24 13:15:08;;;;;;;4.97;2.03;;;31.00;99.90;;;;;;5130513;28;20066;-72
2022/07/24 13:17:40;;;;;;;7.88;2.30;;;31.40;99.90;;;;;;5141018;28;20514;-71